createdAt,value
2017-07-28T00:00:50.326Z,0
2017-07-28T00:02:01.042Z,0
2017-07-28T00:03:11.527Z,0
2017-07-28T00:04:21.250Z,0
2017-07-28T00:05:31.959Z,0
2017-07-28T00:06:42.429Z,0
2017-07-28T00:07:52.920Z,0
2017-07-28T00:09:03.386Z,0
2017-07-28T00:10:14.058Z,0
2017-07-28T00:11:24.809Z,0
2017-07-28T00:12:34.957Z,0
2017-07-28T00:13:45.445Z,0
2017-07-28T00:14:55.897Z,0
2017-07-28T00:16:06.448Z,0
2017-07-28T00:17:17.413Z,0
2017-07-28T00:18:27.918Z,0
2017-07-28T00:19:38.461Z,0
2017-07-28T00:20:49.008Z,0
2017-07-28T00:21:59.783Z,0
2017-07-28T00:23:10.499Z,0
2017-07-28T00:24:20.966Z,0
2017-07-28T00:25:31.434Z,0
2017-07-28T00:26:41.884Z,0
2017-07-28T00:27:52.427Z,0
2017-07-28T00:29:03.155Z,0
2017-07-28T00:30:13.634Z,0
2017-07-28T00:31:24.082Z,0
2017-07-28T00:32:34.559Z,0
2017-07-28T00:33:44.623Z,0
2017-07-28T00:34:55.311Z,0
2017-07-28T00:36:05.764Z,0
2017-07-28T00:37:16.265Z,0
2017-07-28T00:38:26.756Z,0
2017-07-28T00:39:37.442Z,0
2017-07-28T00:40:48.426Z,0
2017-07-28T00:41:58.927Z,0
2017-07-28T00:43:09.435Z,0
2017-07-28T00:44:19.579Z,0
2017-07-28T00:45:30.030Z,0
2017-07-28T00:46:40.100Z,0
2017-07-28T00:47:50.147Z,0
2017-07-28T00:49:00.698Z,0
2017-07-28T00:50:11.168Z,0
2017-07-28T00:51:21.672Z,0
2017-07-28T00:52:32.397Z,0
2017-07-28T00:53:43.862Z,0
2017-07-28T00:54:54.460Z,0
2017-07-28T00:56:04.943Z,0
2017-07-28T00:57:15.435Z,0
2017-07-28T00:58:26.350Z,0
2017-07-28T00:59:36.810Z,0
2017-07-28T01:00:47.543Z,0
2017-07-28T01:01:58.037Z,0
2017-07-28T01:03:08.517Z,0
2017-07-28T01:04:19.243Z,0
2017-07-28T01:05:29.775Z,0
2017-07-28T01:06:40.247Z,0
2017-07-28T01:07:50.795Z,0
2017-07-28T01:09:01.255Z,0
2017-07-28T01:10:12.011Z,0
2017-07-28T01:11:22.498Z,0
2017-07-28T01:12:32.984Z,0
2017-07-28T01:13:43.446Z,0
2017-07-28T01:14:53.905Z,0
2017-07-28T01:16:04.815Z,0
2017-07-28T01:17:14.969Z,0
2017-07-28T01:18:25.107Z,0
2017-07-28T01:19:35.765Z,0
2017-07-28T01:20:46.228Z,0
2017-07-28T01:21:56.993Z,0
2017-07-28T01:23:07.573Z,0
2017-07-28T01:24:18.132Z,0
2017-07-28T01:25:28.585Z,0
2017-07-28T01:26:39.061Z,0
2017-07-28T01:27:50.030Z,0
2017-07-28T01:29:00.583Z,0
2017-07-28T01:30:11.289Z,0
2017-07-28T01:31:21.862Z,0
2017-07-28T01:32:32.314Z,0
2017-07-28T01:33:43.040Z,0
2017-07-28T01:34:53.622Z,0
2017-07-28T01:36:03.779Z,0
2017-07-28T01:37:14.232Z,0
2017-07-28T01:38:24.695Z,0
2017-07-28T01:39:35.433Z,0
2017-07-28T01:40:45.916Z,0
2017-07-28T01:41:56.386Z,0
2017-07-28T01:43:06.873Z,0
2017-07-28T01:44:17.473Z,0
2017-07-28T01:45:28.196Z,0
2017-07-28T01:46:38.815Z,0
2017-07-28T01:47:49.496Z,0
2017-07-28T01:49:00.069Z,0
2017-07-28T01:50:10.955Z,0
2017-07-28T01:51:21.664Z,0
2017-07-28T01:52:32.354Z,0
2017-07-28T01:53:42.818Z,0
2017-07-28T01:54:53.339Z,0
2017-07-28T01:56:03.852Z,0
2017-07-28T01:57:14.612Z,0
2017-07-28T01:58:25.066Z,0
2017-07-28T01:59:35.226Z,0
2017-07-28T02:00:45.716Z,0
2017-07-28T02:01:56.185Z,0
2017-07-28T02:03:07.167Z,0
2017-07-28T02:04:17.607Z,0
2017-07-28T02:05:28.103Z,0
2017-07-28T02:06:38.595Z,0
2017-07-28T02:07:49.056Z,0
2017-07-28T02:08:59.793Z,0
2017-07-28T02:10:10.478Z,0
2017-07-28T02:11:20.960Z,0
2017-07-28T02:12:31.759Z,0
2017-07-28T02:13:42.254Z,0
2017-07-28T02:14:52.995Z,0
2017-07-28T02:16:03.501Z,0
2017-07-28T02:17:13.483Z,0
2017-07-28T02:18:24.584Z,0
2017-07-28T02:19:35.128Z,0
2017-07-28T02:20:45.827Z,0
2017-07-28T02:21:56.278Z,0
2017-07-28T02:23:06.766Z,0
2017-07-28T02:24:17.227Z,0
2017-07-28T02:25:28.113Z,0
2017-07-28T02:26:38.980Z,0
2017-07-28T02:27:49.471Z,0
2017-07-28T02:28:59.678Z,0
2017-07-28T02:30:09.577Z,0
2017-07-28T02:31:20.025Z,0
2017-07-28T02:32:30.806Z,0
2017-07-28T02:33:41.290Z,0
2017-07-28T02:34:51.749Z,0
2017-07-28T02:36:02.200Z,0
2017-07-28T02:37:12.692Z,0
2017-07-28T02:38:23.440Z,0
2017-07-28T02:39:33.908Z,0
2017-07-28T02:40:44.346Z,0
2017-07-28T02:41:54.810Z,0
2017-07-28T02:43:05.292Z,0
2017-07-28T02:44:16.032Z,0
2017-07-28T02:45:26.408Z,0
2017-07-28T02:46:36.648Z,0
2017-07-28T02:47:47.145Z,0
2017-07-28T02:48:57.602Z,0
2017-07-28T02:50:08.353Z,0
2017-07-28T02:51:18.799Z,4
2017-07-28T02:52:29.319Z,4
2017-07-28T02:53:39.854Z,4
2017-07-28T02:54:50.341Z,0
2017-07-28T02:56:01.088Z,4
2017-07-28T02:57:11.654Z,4
2017-07-28T02:58:22.191Z,4
2017-07-28T02:59:32.731Z,8
2017-07-28T03:00:42.902Z,8
2017-07-28T03:01:53.290Z,8
2017-07-28T03:03:03.822Z,12
2017-07-28T03:04:14.317Z,12
2017-07-28T03:05:24.462Z,12
2017-07-28T03:06:34.943Z,16
2017-07-28T03:07:45.667Z,20
2017-07-28T03:08:56.148Z,20
2017-07-28T03:10:06.401Z,24
2017-07-28T03:11:16.882Z,32
2017-07-28T03:12:27.780Z,36
2017-07-28T03:13:38.551Z,44
2017-07-28T03:14:49.055Z,48
2017-07-28T03:15:59.558Z,56
2017-07-28T03:17:10.156Z,64
2017-07-28T03:18:20.621Z,76
2017-07-28T03:19:31.357Z,84
2017-07-28T03:20:41.818Z,96
2017-07-28T03:21:52.203Z,104
2017-07-28T03:23:02.682Z,116
2017-07-28T03:24:13.159Z,132
2017-07-28T03:25:23.868Z,148
2017-07-28T03:26:34.364Z,164
2017-07-28T03:27:44.808Z,184
2017-07-28T03:28:55.285Z,200
2017-07-28T03:30:05.757Z,224
2017-07-28T03:31:16.455Z,244
2017-07-28T03:32:26.936Z,268
2017-07-28T03:33:37.401Z,292
2017-07-28T03:34:47.902Z,316
2017-07-28T03:35:58.353Z,340
2017-07-28T03:37:09.054Z,368
2017-07-28T03:38:19.527Z,396
2017-07-28T03:39:30.242Z,420
2017-07-28T03:40:40.674Z,448
2017-07-28T03:41:51.258Z,484
2017-07-28T03:43:01.998Z,516
2017-07-28T03:44:12.678Z,548
2017-07-28T03:45:23.144Z,584
2017-07-28T03:46:33.709Z,616
2017-07-28T03:47:44.160Z,648
2017-07-28T03:48:55.119Z,684
2017-07-28T03:50:05.605Z,716
2017-07-28T03:51:16.088Z,756
2017-07-28T03:52:26.848Z,792
2017-07-28T03:53:36.680Z,824
2017-07-28T03:54:47.477Z,864
2017-07-28T03:55:57.931Z,896
2017-07-28T03:57:08.583Z,932
2017-07-28T03:58:18.728Z,968
2017-07-28T03:59:29.208Z,1004
2017-07-28T04:00:40.141Z,1040
2017-07-28T04:01:50.600Z,1072
2017-07-28T04:03:01.290Z,1108
2017-07-28T04:04:11.771Z,1144
2017-07-28T04:05:22.256Z,1184
2017-07-28T04:06:32.992Z,1220
2017-07-28T04:07:43.474Z,1260
2017-07-28T04:08:53.985Z,1300
2017-07-28T04:10:04.446Z,1336
2017-07-28T04:11:14.874Z,1368
2017-07-28T04:12:25.797Z,1400
2017-07-28T04:13:36.321Z,1436
2017-07-28T04:14:46.772Z,1468
2017-07-28T04:15:57.249Z,1496
2017-07-28T04:17:07.760Z,1532
2017-07-28T04:18:18.166Z,1568
2017-07-28T04:19:28.704Z,1620
2017-07-28T04:20:38.868Z,1660
2017-07-28T04:21:49.353Z,1668
2017-07-28T04:22:59.821Z,1704
2017-07-28T04:24:10.525Z,1740
2017-07-28T04:25:21.173Z,1780
2017-07-28T04:26:31.387Z,1812
2017-07-28T04:27:42.325Z,1848
2017-07-28T04:28:52.870Z,1872
2017-07-28T04:30:03.889Z,1904
2017-07-28T04:31:14.357Z,1936
2017-07-28T04:32:25.032Z,1976
2017-07-28T04:33:35.617Z,2020
2017-07-28T04:34:46.087Z,2068
2017-07-28T04:35:56.856Z,2108
2017-07-28T04:37:07.328Z,2140
2017-07-28T04:38:17.828Z,2184
2017-07-28T04:39:28.308Z,2228
2017-07-28T04:40:38.778Z,2268
2017-07-28T04:41:49.517Z,2304
2017-07-28T04:43:00.093Z,2336
2017-07-28T04:44:10.570Z,2360
2017-07-28T04:45:21.020Z,2392
2017-07-28T04:46:31.487Z,2408
2017-07-28T04:47:42.208Z,2432
2017-07-28T04:48:52.876Z,2456
2017-07-28T04:50:03.338Z,2480
2017-07-28T04:51:13.851Z,2504
2017-07-28T04:52:24.335Z,2524
2017-07-28T04:53:35.043Z,2556
2017-07-28T04:54:45.876Z,2592
2017-07-28T04:55:56.345Z,2628
2017-07-28T04:57:06.806Z,2660
2017-07-28T04:58:17.255Z,2700
2017-07-28T04:59:27.976Z,2728
2017-07-28T05:00:38.468Z,2772
2017-07-28T05:01:48.507Z,2808
2017-07-28T05:02:59.003Z,2848
2017-07-28T05:04:09.355Z,2884
2017-07-28T05:05:20.074Z,2920
2017-07-28T05:06:30.574Z,2956
2017-07-28T05:07:41.168Z,2988
2017-07-28T05:08:51.368Z,3012
2017-07-28T05:10:01.860Z,3028
2017-07-28T05:11:12.580Z,3052
2017-07-28T05:12:23.075Z,3080
2017-07-28T05:13:33.533Z,3108
2017-07-28T05:14:44.077Z,3140
2017-07-28T05:15:54.519Z,3164
2017-07-28T05:17:04.958Z,3196
2017-07-28T05:18:15.641Z,3228
2017-07-28T05:19:26.104Z,3256
2017-07-28T05:20:36.280Z,3284
2017-07-28T05:21:46.732Z,3316
2017-07-28T05:22:57.728Z,3352
2017-07-28T05:24:08.252Z,3380
2017-07-28T05:25:18.750Z,3420
2017-07-28T05:26:29.231Z,3448
2017-07-28T05:27:39.673Z,3484
2017-07-28T05:28:50.408Z,3516
2017-07-28T05:30:00.891Z,3556
2017-07-28T05:31:11.587Z,3588
2017-07-28T05:32:22.265Z,3628
2017-07-28T05:33:32.396Z,3656
2017-07-28T05:34:43.120Z,3692
2017-07-28T05:35:53.655Z,3732
2017-07-28T05:37:04.116Z,3772
2017-07-28T05:38:14.796Z,3816
2017-07-28T05:39:25.245Z,3860
2017-07-28T05:40:36.010Z,3912
2017-07-28T05:41:46.530Z,3952
2017-07-28T05:42:56.984Z,3992
2017-07-28T05:44:07.476Z,4036
2017-07-28T05:45:18.234Z,4088
2017-07-28T05:46:28.955Z,4128
2017-07-28T05:47:39.387Z,4200
2017-07-28T05:48:49.902Z,4332
2017-07-28T05:50:00.988Z,4512
2017-07-28T05:51:11.440Z,4756
2017-07-28T05:52:21.886Z,5052
2017-07-28T05:53:32.346Z,5412
2017-07-28T05:54:42.883Z,5920
2017-07-28T05:55:53.363Z,6748
2017-07-28T05:57:03.838Z,7972
2017-07-28T05:58:14.592Z,9176
2017-07-28T05:59:25.093Z,10044
2017-07-28T06:00:35.559Z,10388
2017-07-28T06:01:46.251Z,10256
2017-07-28T06:02:56.750Z,9948
2017-07-28T06:04:07.691Z,8968
2017-07-28T06:05:18.607Z,8388
2017-07-28T06:06:29.498Z,8004
2017-07-28T06:07:40.143Z,7628
2017-07-28T06:08:50.822Z,7300
2017-07-28T06:10:01.563Z,7112
2017-07-28T06:11:12.004Z,6980
2017-07-28T06:12:22.892Z,6848
2017-07-28T06:13:33.434Z,6560
2017-07-28T06:14:43.898Z,6196
2017-07-28T06:15:54.607Z,5936
2017-07-28T06:17:04.753Z,5764
2017-07-28T06:18:15.277Z,5700
2017-07-28T06:19:25.751Z,5668
2017-07-28T06:20:36.061Z,5744
2017-07-28T06:21:46.840Z,5684
2017-07-28T06:22:57.420Z,5576
2017-07-28T06:24:08.079Z,5508
2017-07-28T06:25:18.348Z,5472
2017-07-28T06:26:28.818Z,5488
2017-07-28T06:27:39.224Z,5544
2017-07-28T06:28:49.722Z,5588
2017-07-28T06:29:59.798Z,5704
2017-07-28T06:31:10.297Z,6092
2017-07-28T06:32:20.752Z,6668
2017-07-28T06:33:31.498Z,7268
2017-07-28T06:34:42.012Z,7684
2017-07-28T06:35:52.486Z,7956
2017-07-28T06:37:03.617Z,8188
2017-07-28T06:38:14.131Z,8668
2017-07-28T06:39:24.832Z,9160
2017-07-28T06:40:35.351Z,9180
2017-07-28T06:41:45.838Z,8824
2017-07-28T06:42:56.351Z,8568
2017-07-28T06:44:06.923Z,8616
2017-07-28T06:45:17.914Z,8752
2017-07-28T06:46:28.391Z,8656
2017-07-28T06:47:38.875Z,8352
2017-07-28T06:48:49.384Z,8008
2017-07-28T06:49:59.902Z,7860
2017-07-28T06:51:10.613Z,7616
2017-07-28T06:52:21.130Z,7252
2017-07-28T06:53:31.709Z,6840
2017-07-28T06:54:42.182Z,6316
2017-07-28T06:55:52.453Z,5752
2017-07-28T06:57:03.197Z,5248
2017-07-28T06:58:13.681Z,5048
2017-07-28T06:59:24.155Z,4960
2017-07-28T07:00:34.726Z,4820
2017-07-28T07:01:45.417Z,4628
2017-07-28T07:02:56.352Z,4432
2017-07-28T07:04:06.928Z,4280
2017-07-28T07:05:17.470Z,4328
2017-07-28T07:06:28.037Z,4400
2017-07-28T07:07:38.593Z,4392
2017-07-28T07:08:49.382Z,4460
2017-07-28T07:09:59.890Z,4736
2017-07-28T07:11:10.392Z,4824
2017-07-28T07:12:20.886Z,5132
2017-07-28T07:13:31.348Z,5432
2017-07-28T07:14:42.235Z,5592
2017-07-28T07:15:52.736Z,5664
2017-07-28T07:17:03.238Z,5356
2017-07-28T07:18:13.707Z,5340
2017-07-28T07:19:24.933Z,5560
2017-07-28T07:20:35.734Z,5452
2017-07-28T07:21:46.249Z,5284
2017-07-28T07:22:56.748Z,5124
2017-07-28T07:24:07.216Z,5248
2017-07-28T07:25:17.733Z,5424
2017-07-28T07:26:28.438Z,5576
2017-07-28T07:27:38.912Z,5656
2017-07-28T07:28:49.078Z,5536
2017-07-28T07:29:59.623Z,5544
2017-07-28T07:31:10.073Z,5840
2017-07-28T07:32:20.842Z,6248
2017-07-28T07:33:31.517Z,6404
2017-07-28T07:34:42.003Z,6456
2017-07-28T07:35:52.683Z,6376
2017-07-28T07:37:02.840Z,6168
2017-07-28T07:38:13.596Z,6148
2017-07-28T07:39:24.074Z,6192
2017-07-28T07:40:34.538Z,6072
2017-07-28T07:41:45.012Z,6000
2017-07-28T07:42:55.657Z,6016
2017-07-28T07:44:06.381Z,6056
2017-07-28T07:45:16.873Z,6144
2017-07-28T07:46:27.327Z,6268
2017-07-28T07:47:37.812Z,6804
2017-07-28T07:48:48.527Z,7608
2017-07-28T07:49:59.454Z,8964
2017-07-28T07:51:09.945Z,10688
2017-07-28T07:52:20.538Z,11924
2017-07-28T07:53:31.000Z,12460
2017-07-28T07:54:41.375Z,12280
2017-07-28T07:55:51.769Z,12020
2017-07-28T07:57:02.245Z,12056
2017-07-28T07:58:12.974Z,11556
2017-07-28T07:59:23.662Z,10472
2017-07-28T08:00:34.138Z,9076
2017-07-28T08:01:45.276Z,7720
2017-07-28T08:02:55.756Z,7172
2017-07-28T08:04:06.237Z,7732
2017-07-28T08:05:16.944Z,8580
2017-07-28T08:06:27.424Z,9180
2017-07-28T08:07:38.359Z,10048
2017-07-28T08:08:48.853Z,10792
2017-07-28T08:09:59.349Z,11756
2017-07-28T08:11:09.965Z,12668
2017-07-28T08:12:20.453Z,14052
2017-07-28T08:13:31.379Z,15604
2017-07-28T08:14:41.863Z,17024
2017-07-28T08:15:52.369Z,18240
2017-07-28T08:17:02.870Z,19520
2017-07-28T08:18:13.520Z,20224
2017-07-28T08:19:24.244Z,19008
2017-07-28T08:20:34.747Z,17344
2017-07-28T08:21:45.226Z,16992
2017-07-28T08:22:55.898Z,18272
2017-07-28T08:24:06.370Z,20800
2017-07-28T08:25:17.194Z,24480
2017-07-28T08:26:27.769Z,24288
2017-07-28T08:27:38.248Z,21952
2017-07-28T08:28:48.727Z,20704
2017-07-28T08:29:59.206Z,19040
2017-07-28T08:31:09.912Z,18112
2017-07-28T08:32:20.582Z,18752
2017-07-28T08:33:31.122Z,20576
2017-07-28T08:34:41.623Z,20576
2017-07-28T08:35:52.140Z,17536
2017-07-28T08:37:02.891Z,17792
2017-07-28T08:38:13.568Z,19296
2017-07-28T08:39:24.165Z,20608
2017-07-28T08:40:34.618Z,22208
2017-07-28T08:41:45.249Z,24192
2017-07-28T08:42:56.265Z,25664
2017-07-28T08:44:06.778Z,30784
2017-07-28T08:45:17.269Z,34144
2017-07-28T08:46:27.725Z,26240
2017-07-28T08:47:38.217Z,33184
2017-07-28T08:48:48.946Z,36960
2017-07-28T08:49:59.452Z,58848
2017-07-28T08:51:09.683Z,69120
2017-07-28T08:52:20.200Z,62656
2017-07-28T08:53:30.687Z,62752
2017-07-28T08:54:41.422Z,61920
2017-07-28T08:55:51.277Z,55040
2017-07-28T08:57:01.990Z,51776
2017-07-28T08:58:13.083Z,42336
2017-07-28T08:59:23.622Z,52896
2017-07-28T09:00:34.453Z,72960
2017-07-28T09:01:44.913Z,102720
2017-07-28T09:02:55.421Z,89408
2017-07-28T09:04:05.919Z,61632
2017-07-28T09:05:16.468Z,72352
2017-07-28T09:06:27.204Z,69344
2017-07-28T09:07:37.662Z,53600
2017-07-28T09:08:48.221Z,66592
2017-07-28T09:09:58.707Z,83904
2017-07-28T09:11:09.268Z,38944
2017-07-28T09:12:20.092Z,60000
2017-07-28T09:13:30.578Z,88288
2017-07-28T09:14:41.095Z,82112
2017-07-28T09:15:51.660Z,19648
2017-07-28T09:17:02.153Z,21920
2017-07-28T09:18:12.918Z,18400
2017-07-28T09:19:23.495Z,16160
2017-07-28T09:20:34.042Z,17504
2017-07-28T09:21:44.590Z,18304
2017-07-28T09:22:54.818Z,17920
2017-07-28T09:24:05.560Z,20000
2017-07-28T09:25:16.591Z,63520
2017-07-28T09:26:27.078Z,40672
2017-07-28T09:27:37.555Z,95104
2017-07-28T09:28:48.037Z,54240
2017-07-28T09:29:58.778Z,65856
2017-07-28T09:31:09.454Z,78464
2017-07-28T09:32:19.937Z,48768
2017-07-28T09:33:30.489Z,24800
2017-07-28T09:34:41.014Z,17696
2017-07-28T09:35:51.755Z,35392
2017-07-28T09:37:02.296Z,23008
2017-07-28T09:38:13.026Z,70944
2017-07-28T09:39:23.519Z,82528
2017-07-28T09:40:33.672Z,94464
2017-07-28T09:41:45.465Z,69472
2017-07-28T09:42:55.959Z,77824
2017-07-28T09:44:06.543Z,34976
2017-07-28T09:45:17.090Z,32992
2017-07-28T09:46:27.785Z,39648
2017-07-28T09:47:38.539Z,62336
2017-07-28T09:48:48.283Z,27584
2017-07-28T09:49:58.763Z,105504
2017-07-28T09:51:09.472Z,94080
2017-07-28T09:52:20.114Z,32064
2017-07-28T09:53:31.151Z,52000
2017-07-28T09:54:41.638Z,35296
2017-07-28T09:55:52.141Z,81120
2017-07-28T09:57:02.688Z,82592
2017-07-28T09:58:13.160Z,81120
2017-07-28T09:59:23.888Z,55456
2017-07-28T10:00:34.491Z,21376
2017-07-28T10:01:44.993Z,11668
2017-07-28T10:02:55.467Z,9724
2017-07-28T10:04:05.983Z,8516
2017-07-28T10:05:16.710Z,7756
2017-07-28T10:06:27.190Z,7476
2017-07-28T10:07:37.684Z,7640
2017-07-28T10:08:48.283Z,8396
2017-07-28T10:09:58.550Z,10340
2017-07-28T10:11:09.356Z,13228
2017-07-28T10:12:19.991Z,15308
2017-07-28T10:13:30.485Z,14548
2017-07-28T10:14:40.955Z,18304
2017-07-28T10:15:51.446Z,20864
2017-07-28T10:17:02.195Z,15872
2017-07-28T10:18:12.680Z,14900
2017-07-28T10:19:23.154Z,19872
2017-07-28T10:20:33.659Z,28960
2017-07-28T10:21:44.184Z,22080
2017-07-28T10:22:54.613Z,72384
2017-07-28T10:24:05.116Z,30432
2017-07-28T10:25:15.611Z,33504
2017-07-28T10:26:26.198Z,61536
2017-07-28T10:27:36.706Z,68608
2017-07-28T10:28:46.696Z,68704
2017-07-28T10:29:57.231Z,78432
2017-07-28T10:31:07.753Z,64768
2017-07-28T10:32:18.738Z,63840
2017-07-28T10:33:29.460Z,38240
2017-07-28T10:34:40.220Z,48000
2017-07-28T10:35:50.781Z,46912
2017-07-28T10:37:01.239Z,37568
2017-07-28T10:38:11.765Z,34560
2017-07-28T10:39:22.346Z,37696
2017-07-28T10:40:33.171Z,61920
2017-07-28T10:41:43.651Z,55392
2017-07-28T10:42:54.256Z,45984
2017-07-28T10:44:04.709Z,38976
2017-07-28T10:45:15.209Z,95712
2017-07-28T10:46:25.959Z,49824
2017-07-28T10:47:36.482Z,57280
2017-07-28T10:48:47.031Z,39744
2017-07-28T10:49:57.529Z,25088
2017-07-28T10:51:08.031Z,25504
2017-07-28T10:52:18.966Z,24224
2017-07-28T10:53:29.450Z,29952
2017-07-28T10:54:39.645Z,84288
2017-07-28T10:55:49.692Z,76704
2017-07-28T10:56:59.856Z,82016
2017-07-28T10:58:10.905Z,49856
2017-07-28T10:59:21.551Z,47712
2017-07-28T11:00:32.023Z,64992
2017-07-28T11:01:42.552Z,70368
2017-07-28T11:02:53.077Z,72000
2017-07-28T11:04:03.485Z,51712
2017-07-28T11:05:13.985Z,18208
2017-07-28T11:06:24.522Z,20160
2017-07-28T11:07:35.093Z,22784
2017-07-28T11:08:45.568Z,21120
2017-07-28T11:09:56.156Z,21280
2017-07-28T11:11:06.826Z,23424
2017-07-28T11:12:17.296Z,21696
2017-07-28T11:13:27.852Z,20064
2017-07-28T11:14:38.546Z,23520
2017-07-28T11:15:49.288Z,24960
2017-07-28T11:16:59.854Z,92736
2017-07-28T11:18:10.392Z,35456
2017-07-28T11:19:20.903Z,28768
2017-07-28T11:20:31.433Z,38592
2017-07-28T11:21:42.213Z,57440
2017-07-28T11:22:52.759Z,30400
2017-07-28T11:24:03.220Z,36672
2017-07-28T11:25:13.386Z,38176
2017-07-28T11:26:23.869Z,48064
2017-07-28T11:27:34.736Z,54656
2017-07-28T11:28:45.248Z,82880
2017-07-28T11:29:55.787Z,100192
2017-07-28T11:31:06.279Z,59776
2017-07-28T11:32:16.803Z,100000
2017-07-28T11:33:27.762Z,70496
2017-07-28T11:34:38.290Z,122720
2017-07-28T11:35:48.887Z,126080
2017-07-28T11:36:59.426Z,62240
2017-07-28T11:38:09.956Z,51072
2017-07-28T11:39:20.976Z,81024
2017-07-28T11:40:31.495Z,63392
2017-07-28T11:41:41.997Z,37632
2017-07-28T11:42:52.613Z,28832
2017-07-28T11:44:03.149Z,21184
2017-07-28T11:45:13.968Z,17568
2017-07-28T11:46:24.513Z,17184
2017-07-28T11:47:34.997Z,20992
2017-07-28T11:48:45.507Z,24928
2017-07-28T11:49:56.228Z,26688
2017-07-28T11:51:07.311Z,30592
2017-07-28T11:52:17.785Z,23232
2017-07-28T11:53:28.501Z,18720
2017-07-28T11:54:39.070Z,21152
2017-07-28T11:55:49.551Z,37600
2017-07-28T11:57:00.288Z,45504
2017-07-28T11:58:10.845Z,56352
2017-07-28T11:59:21.516Z,95936
2017-07-28T12:00:32.002Z,101184
2017-07-28T12:01:42.565Z,144864
2017-07-28T12:02:53.344Z,119712
2017-07-28T12:04:04.221Z,50720
2017-07-28T12:05:14.770Z,90304
2017-07-28T12:06:25.289Z,137152
2017-07-28T12:07:35.833Z,86944
2017-07-28T12:08:47.613Z,83904
2017-07-28T12:09:58.122Z,108672
2017-07-28T12:11:10.221Z,142368
2017-07-28T12:12:20.707Z,61920
2017-07-28T12:13:31.246Z,84672
2017-07-28T12:14:42.024Z,67552
2017-07-28T12:15:52.567Z,161472
2017-07-28T12:17:03.076Z,147136
2017-07-28T12:18:13.594Z,106816
2017-07-28T12:19:24.107Z,100160
2017-07-28T12:20:34.844Z,135648
2017-07-28T12:21:45.449Z,132128
2017-07-28T12:22:55.940Z,57280
2017-07-28T12:24:06.537Z,52224
2017-07-28T12:25:17.067Z,109664
2017-07-28T12:26:28.133Z,107776
2017-07-28T12:27:38.925Z,90304
2017-07-28T12:28:49.488Z,81088
2017-07-28T12:29:59.987Z,114400
2017-07-28T12:31:10.533Z,101664
2017-07-28T12:32:21.356Z,61760
2017-07-28T12:33:31.834Z,50496
2017-07-28T12:34:42.441Z,37952
2017-07-28T12:35:52.941Z,53184
2017-07-28T12:37:03.642Z,88416
2017-07-28T12:38:14.422Z,71360
2017-07-28T12:39:25.018Z,121280
2017-07-28T12:40:35.501Z,93664
2017-07-28T12:41:46.038Z,95616
2017-07-28T12:42:56.681Z,115424
2017-07-28T12:44:07.508Z,125280
2017-07-28T12:45:18.003Z,118368
2017-07-28T12:46:28.260Z,113056
2017-07-28T12:47:38.761Z,116224
2017-07-28T12:48:49.272Z,128864
2017-07-28T12:50:00.082Z,116032
2017-07-28T12:51:10.630Z,86176
2017-07-28T12:52:21.164Z,74976
2017-07-28T12:53:31.339Z,94304
2017-07-28T12:54:41.841Z,115712
2017-07-28T12:55:52.607Z,120000
2017-07-28T12:57:04.300Z,110592
2017-07-28T12:58:14.956Z,114240
2017-07-28T12:59:25.471Z,122304
2017-07-28T13:00:36.055Z,107968
2017-07-28T13:01:46.802Z,94560
2017-07-28T13:02:57.313Z,103168
2017-07-28T13:04:07.820Z,113472
2017-07-28T13:05:18.514Z,102688
2017-07-28T13:06:29.053Z,86784
2017-07-28T13:07:39.817Z,106304
2017-07-28T13:08:50.321Z,134112
2017-07-28T13:10:00.816Z,111968
2017-07-28T13:11:11.343Z,80064
2017-07-28T13:12:21.609Z,81024
2017-07-28T13:13:32.404Z,106400
2017-07-28T13:14:42.924Z,108032
2017-07-28T13:15:53.412Z,91168
2017-07-28T13:17:03.905Z,69984
2017-07-28T13:18:14.498Z,77184
2017-07-28T13:19:25.229Z,114368
2017-07-28T13:20:35.724Z,29120
2017-07-28T13:21:46.244Z,124896
2017-07-28T13:22:57.734Z,111488
2017-07-28T13:24:08.275Z,96352
2017-07-28T13:25:19.042Z,91168
2017-07-28T13:26:29.588Z,108096
2017-07-28T13:27:40.092Z,130976
2017-07-28T13:28:50.610Z,127968
2017-07-28T13:30:01.187Z,94816
2017-07-28T13:31:12.139Z,62752
2017-07-28T13:32:22.341Z,85856
2017-07-28T13:33:32.871Z,17824
2017-07-28T13:34:43.444Z,130752
2017-07-28T13:35:53.943Z,103296
2017-07-28T13:37:04.713Z,40544
2017-07-28T13:38:15.213Z,95008
2017-07-28T13:39:25.751Z,132000
2017-07-28T13:40:36.571Z,123648
2017-07-28T13:41:48.050Z,76896
2017-07-28T13:42:58.804Z,70016
2017-07-28T13:44:09.432Z,92832
2017-07-28T13:45:20.019Z,90432
2017-07-28T13:46:30.123Z,74464
2017-07-28T13:47:40.641Z,103904
2017-07-28T13:48:51.411Z,117120
2017-07-28T13:50:02.047Z,83712
2017-07-28T13:51:12.609Z,49056
2017-07-28T13:52:23.128Z,44544
2017-07-28T13:53:33.679Z,78048
2017-07-28T13:54:44.464Z,106752
2017-07-28T13:55:55.057Z,104864
2017-07-28T13:57:05.578Z,63392
2017-07-28T13:58:16.185Z,35648
2017-07-28T13:59:26.653Z,67840
2017-07-28T14:00:37.704Z,16832
2017-07-28T14:01:48.434Z,13268
2017-07-28T14:03:00.418Z,38400
2017-07-28T14:04:13.325Z,93792
2017-07-28T14:05:26.548Z,93536
2017-07-28T14:06:40.319Z,17760
2017-07-28T14:07:53.353Z,15584
2017-07-28T14:09:05.866Z,16704
2017-07-28T14:10:19.574Z,16736
2017-07-28T14:11:32.997Z,17408
2017-07-28T14:12:45.034Z,63808
2017-07-28T14:13:55.778Z,89664
2017-07-28T14:15:06.330Z,25792
2017-07-28T14:16:16.832Z,15336
2017-07-28T14:17:27.721Z,16544
2017-07-28T14:18:38.239Z,71648
2017-07-28T14:19:49.042Z,77184
2017-07-28T14:20:59.725Z,81952
2017-07-28T14:22:10.240Z,72800
2017-07-28T14:23:21.071Z,61536
2017-07-28T14:24:31.796Z,55264
2017-07-28T14:25:42.323Z,53536
2017-07-28T14:26:53.276Z,71712
2017-07-28T14:28:03.793Z,89664
2017-07-28T14:29:14.586Z,82848
2017-07-28T14:30:25.061Z,72864
2017-07-28T14:31:35.664Z,81344
2017-07-28T14:32:46.358Z,87424
2017-07-28T14:33:57.001Z,79264
2017-07-28T14:35:07.823Z,69792
2017-07-28T14:36:18.357Z,60768
2017-07-28T14:37:28.943Z,56224
2017-07-28T14:38:39.457Z,62272
2017-07-28T14:39:49.660Z,63392
2017-07-28T14:41:00.571Z,62400
2017-07-28T14:42:11.259Z,8664
2017-07-28T14:43:21.484Z,10744
2017-07-28T14:44:31.747Z,74816
2017-07-28T14:45:42.283Z,77152
2017-07-28T14:46:52.768Z,83488
2017-07-28T14:48:03.362Z,78624
2017-07-28T14:49:14.089Z,71776
2017-07-28T14:50:24.621Z,64992
2017-07-28T14:51:35.365Z,65920
2017-07-28T14:52:46.138Z,74688
2017-07-28T14:53:57.028Z,25504
2017-07-28T14:55:07.518Z,64704
2017-07-28T14:56:18.011Z,57824
2017-07-28T14:57:28.544Z,13528
2017-07-28T14:58:39.294Z,10832
2017-07-28T14:59:49.900Z,9920
2017-07-28T15:01:00.647Z,10300
2017-07-28T15:02:11.246Z,10132
2017-07-28T15:03:21.855Z,53920
2017-07-28T15:04:32.669Z,18112
2017-07-28T15:05:43.426Z,21504
2017-07-28T15:06:53.643Z,66208
2017-07-28T15:08:04.185Z,13212
2017-07-28T15:09:14.800Z,13140
2017-07-28T15:10:25.669Z,15136
2017-07-28T15:11:36.463Z,25824
2017-07-28T15:12:47.073Z,16416
2017-07-28T15:13:57.587Z,57344
2017-07-28T15:15:08.183Z,43712
2017-07-28T15:16:19.214Z,19616
2017-07-28T15:17:29.707Z,39840
2017-07-28T15:18:40.223Z,64736
2017-07-28T15:19:50.749Z,12080
2017-07-28T15:21:01.438Z,10880
2017-07-28T15:22:12.328Z,10256
2017-07-28T15:23:22.851Z,20416
2017-07-28T15:24:33.364Z,13892
2017-07-28T15:25:43.945Z,14116
2017-07-28T15:26:54.521Z,14488
2017-07-28T15:28:05.490Z,14108
2017-07-28T15:29:16.095Z,14376
2017-07-28T15:30:26.690Z,14292
2017-07-28T15:31:37.443Z,15776
2017-07-28T15:32:47.984Z,15572
2017-07-28T15:33:58.718Z,13588
2017-07-28T15:35:09.281Z,16096
2017-07-28T15:36:19.834Z,16320
2017-07-28T15:37:30.394Z,13152
2017-07-28T15:38:41.212Z,13716
2017-07-28T15:39:52.004Z,10996
2017-07-28T15:41:02.559Z,12748
2017-07-28T15:42:13.376Z,12164
2017-07-28T15:43:23.917Z,12104